createdAt,value
2023-04-23T00:00:29.401Z,8.74
2023-04-23T00:01:29.389Z,8.74
2023-04-23T00:02:29.139Z,8.72
2023-04-23T00:03:29.293Z,8.71
2023-04-23T00:04:29.321Z,8.71
2023-04-23T00:05:29.125Z,8.74
2023-04-23T00:06:29.020Z,8.71
2023-04-23T00:07:28.981Z,8.71
2023-04-23T00:08:29.019Z,8.68
2023-04-23T00:09:29.189Z,8.69
2023-04-23T00:10:29.029Z,8.68
2023-04-23T00:11:29.354Z,8.66
2023-04-23T00:12:29.006Z,8.63
2023-04-23T00:13:28.994Z,8.64
2023-04-23T00:14:28.873Z,8.64
2023-04-23T00:15:28.868Z,8.66
2023-04-23T00:16:29.063Z,8.64
2023-04-23T00:17:28.892Z,8.66
2023-04-23T00:18:28.832Z,8.64
2023-04-23T00:19:28.891Z,8.68
2023-04-23T00:20:28.897Z,8.68
2023-04-23T00:21:28.882Z,8.68
2023-04-23T00:22:29.144Z,8.68
2023-04-23T00:23:28.769Z,8.72
2023-04-23T00:24:28.741Z,8.71
2023-04-23T00:25:28.899Z,8.74
2023-04-23T00:26:28.723Z,8.78
2023-04-23T00:27:28.875Z,8.81
2023-04-23T00:28:28.825Z,8.86
2023-04-23T00:29:28.682Z,8.86
2023-04-23T00:30:28.710Z,8.89
2023-04-23T00:31:28.898Z,8.86
2023-04-23T00:32:28.735Z,8.87
2023-04-23T00:33:28.950Z,8.84
2023-04-23T00:34:28.628Z,8.82
2023-04-23T00:35:28.610Z,8.82
2023-04-23T00:36:28.728Z,8.79
2023-04-23T00:37:28.909Z,8.79
2023-04-23T00:38:28.551Z,8.78
2023-04-23T00:39:28.623Z,8.77
2023-04-23T00:40:28.761Z,8.75
2023-04-23T00:41:28.555Z,8.72
2023-04-23T00:42:28.505Z,8.72
2023-04-23T00:43:28.572Z,8.71
2023-04-23T00:44:28.509Z,8.69
2023-04-23T00:45:28.574Z,8.71
2023-04-23T00:46:28.538Z,8.71
2023-04-23T00:47:28.512Z,8.68
2023-04-23T00:48:28.427Z,8.66
2023-04-23T00:49:28.555Z,8.66
2023-04-23T00:50:28.399Z,8.64
2023-04-23T00:51:28.407Z,8.63
2023-04-23T00:52:28.408Z,8.61
2023-04-23T00:53:28.363Z,8.60
2023-04-23T00:54:28.403Z,8.59
2023-04-23T00:55:28.452Z,8.57
2023-04-23T00:56:28.322Z,8.57
2023-04-23T00:57:28.338Z,8.57
2023-04-23T00:58:28.370Z,8.53
2023-04-23T00:59:28.268Z,8.54
2023-04-23T01:00:28.261Z,8.54
2023-04-23T01:01:28.422Z,8.53
2023-04-23T01:02:28.514Z,8.53
2023-04-23T01:03:28.402Z,8.52
2023-04-23T01:04:28.238Z,8.50
2023-04-23T01:05:28.241Z,8.52
2023-04-23T01:06:28.158Z,8.52
2023-04-23T01:07:28.379Z,8.52
2023-04-23T01:08:28.170Z,8.52
2023-04-23T01:09:28.131Z,8.52
2023-04-23T01:10:28.173Z,8.52
2023-04-23T01:11:28.256Z,8.52
2023-04-23T01:12:28.079Z,8.49
2023-04-23T01:13:28.204Z,8.46
2023-04-23T01:14:28.075Z,8.45
2023-04-23T01:15:28.065Z,8.44
2023-04-23T01:16:28.122Z,8.44
2023-04-23T01:17:28.110Z,8.39
2023-04-23T01:18:28.159Z,8.35
2023-04-23T01:19:28.034Z,8.34
2023-04-23T01:20:28.095Z,8.32
2023-04-23T01:21:27.973Z,8.31
2023-04-23T01:22:28.094Z,8.28
2023-04-23T01:23:27.939Z,8.26
2023-04-23T01:24:28.126Z,8.28
2023-04-23T01:25:28.013Z,8.26
2023-04-23T01:26:27.906Z,8.21
2023-04-23T01:27:27.953Z,8.18
2023-04-23T01:28:28.092Z,8.17
2023-04-23T01:29:27.954Z,8.14
2023-04-23T01:30:28.150Z,8.13
2023-04-23T01:31:28.004Z,8.13
2023-04-23T01:32:27.849Z,8.11
2023-04-23T01:33:27.917Z,8.09
2023-04-23T01:34:28.125Z,8.08
2023-04-23T01:35:27.923Z,8.06
2023-04-23T01:36:27.828Z,8.06
2023-04-23T01:37:27.974Z,8.05
2023-04-23T01:38:27.932Z,8.02
2023-04-23T01:39:27.944Z,7.99
2023-04-23T01:40:27.793Z,7.96
2023-04-23T01:41:28.020Z,7.95
2023-04-23T01:42:27.753Z,7.93
2023-04-23T01:43:27.928Z,7.95
2023-04-23T01:44:27.699Z,7.93
2023-04-23T01:45:27.928Z,7.93
2023-04-23T01:46:27.824Z,7.93
2023-04-23T01:47:28.016Z,7.90
2023-04-23T01:48:27.768Z,7.87
2023-04-23T01:49:27.647Z,7.85
2023-04-23T01:50:27.774Z,7.85
2023-04-23T01:51:27.554Z,7.90
2023-04-23T01:52:27.827Z,7.91
2023-04-23T01:53:27.670Z,7.95
2023-04-23T01:54:27.555Z,7.96
2023-04-23T01:55:27.541Z,7.96
2023-04-23T01:56:27.482Z,8.02
2023-04-23T01:57:27.512Z,8.06
2023-04-23T01:58:27.636Z,8.06
2023-04-23T01:59:27.463Z,8.11
2023-04-23T02:00:27.483Z,8.11
2023-04-23T02:01:27.488Z,8.14
2023-04-23T02:02:27.543Z,8.16
2023-04-23T02:03:27.483Z,8.16
2023-04-23T02:04:27.691Z,8.17
2023-04-23T02:05:27.396Z,8.16
2023-04-23T02:06:27.434Z,8.14
2023-04-23T02:07:27.405Z,8.14
2023-04-23T02:08:27.433Z,8.13
2023-04-23T02:09:27.368Z,8.13
2023-04-23T02:10:27.419Z,8.13
2023-04-23T02:11:27.301Z,8.14
2023-04-23T02:12:27.309Z,8.17
2023-04-23T02:13:27.310Z,8.14
2023-04-23T02:14:27.263Z,8.11
2023-04-23T02:15:27.360Z,8.08
2023-04-23T02:16:27.292Z,8.06
2023-04-23T02:17:27.398Z,8.06
2023-04-23T02:18:27.207Z,8.02
2023-04-23T02:19:27.288Z,7.98
2023-04-23T02:20:27.213Z,7.96
2023-04-23T02:21:27.263Z,7.95
2023-04-23T02:22:27.178Z,7.90
2023-04-23T02:23:27.460Z,7.88
2023-04-23T02:24:27.119Z,7.83
2023-04-23T02:25:27.289Z,7.83
2023-04-23T02:26:27.172Z,7.80
2023-04-23T02:27:27.086Z,7.78
2023-04-23T02:28:27.139Z,7.78
2023-04-23T02:29:27.138Z,7.74
2023-04-23T02:30:27.130Z,7.74
2023-04-23T02:31:27.187Z,7.70
2023-04-23T02:32:27.116Z,7.69
2023-04-23T02:33:27.004Z,7.69
2023-04-23T02:34:27.066Z,7.66
2023-04-23T02:35:26.986Z,7.64
2023-04-23T02:36:27.112Z,7.64
2023-04-23T02:37:27.175Z,7.66
2023-04-23T02:38:27.129Z,7.67
2023-04-23T02:39:26.990Z,7.69
2023-04-23T02:40:27.162Z,7.72
2023-04-23T02:41:26.960Z,7.75
2023-04-23T02:42:27.126Z,7.77
2023-04-23T02:43:26.959Z,7.78
2023-04-23T02:44:26.861Z,7.78
2023-04-23T02:45:26.974Z,7.83
2023-04-23T02:46:27.018Z,7.87
2023-04-23T02:47:27.003Z,7.88
2023-04-23T02:48:26.858Z,7.88
2023-04-23T02:49:26.997Z,7.91
2023-04-23T02:50:26.796Z,7.96
2023-04-23T02:51:26.760Z,7.99
2023-04-23T02:52:26.844Z,8.03
2023-04-23T02:53:26.772Z,8.06
2023-04-23T02:54:26.804Z,8.09
2023-04-23T02:55:26.972Z,8.14
2023-04-23T02:56:26.805Z,8.17
2023-04-23T02:57:26.953Z,8.20
2023-04-23T02:58:26.832Z,8.21
2023-04-23T02:59:26.721Z,8.24
2023-04-23T03:00:26.641Z,8.28
2023-04-23T03:01:26.715Z,8.34
2023-04-23T03:02:26.797Z,8.36
2023-04-23T03:03:27.051Z,8.39
2023-04-23T03:04:26.609Z,8.44
2023-04-23T03:05:26.641Z,8.45
2023-04-23T03:06:26.545Z,8.50
2023-04-23T03:07:26.660Z,8.52
2023-04-23T03:08:26.561Z,8.56
2023-04-23T03:09:26.509Z,8.56
2023-04-23T03:10:26.525Z,8.59
2023-04-23T03:11:26.781Z,8.60
2023-04-23T03:12:26.481Z,8.63
2023-04-23T03:13:26.643Z,8.63
2023-04-23T03:14:26.501Z,8.61
2023-04-23T03:15:26.451Z,8.63
2023-04-23T03:16:26.592Z,8.61
2023-04-23T03:17:26.667Z,8.63
2023-04-23T03:18:26.531Z,8.66
2023-04-23T03:19:26.654Z,8.68
2023-04-23T03:20:26.476Z,8.71
2023-04-23T03:21:26.392Z,8.72
2023-04-23T03:22:26.600Z,8.72
2023-04-23T03:23:26.306Z,8.75
2023-04-23T03:24:26.376Z,8.75
2023-04-23T03:25:26.300Z,8.75
2023-04-23T03:26:26.322Z,8.81
2023-04-23T03:27:26.329Z,8.81
2023-04-23T03:28:26.315Z,8.81
2023-04-23T03:29:26.319Z,8.84
2023-04-23T03:30:26.241Z,8.81
2023-04-23T03:31:26.323Z,8.82
2023-04-23T03:32:26.289Z,8.84
2023-04-23T03:33:26.429Z,8.84
2023-04-23T03:34:26.475Z,8.87
2023-04-23T03:35:26.181Z,8.89
2023-04-23T03:36:26.185Z,8.89
2023-04-23T03:37:26.312Z,8.90
2023-04-23T03:38:26.159Z,8.92
2023-04-23T03:39:26.171Z,8.90
2023-04-23T03:40:26.175Z,8.92
2023-04-23T03:41:26.341Z,8.93
2023-04-23T03:42:26.092Z,8.96
2023-04-23T03:43:26.083Z,8.97
2023-04-23T03:44:26.158Z,8.97
2023-04-23T03:45:26.156Z,8.99
2023-04-23T03:46:26.195Z,8.99
2023-04-23T03:47:26.084Z,8.99
2023-04-23T03:48:25.978Z,9.00
2023-04-23T03:49:25.966Z,9.03
2023-04-23T03:50:26.205Z,9.05
2023-04-23T03:51:26.127Z,9.05
2023-04-23T03:52:25.932Z,9.08
2023-04-23T03:53:25.922Z,9.08
2023-04-23T03:54:26.188Z,9.11
2023-04-23T03:55:25.992Z,9.13
2023-04-23T03:56:27.245Z,9.15
2023-04-23T03:57:26.034Z,9.15
2023-04-23T03:58:25.903Z,9.15
2023-04-23T03:59:26.017Z,9.16
2023-04-23T04:00:25.954Z,9.19
2023-04-23T04:01:26.206Z,9.19
2023-04-23T04:02:26.069Z,9.22
2023-04-23T04:03:26.112Z,9.24
2023-04-23T04:04:26.094Z,9.27
2023-04-23T04:05:25.749Z,9.30
2023-04-23T04:06:25.796Z,9.34
2023-04-23T04:07:25.801Z,9.39
2023-04-23T04:08:25.833Z,9.39
2023-04-23T04:09:25.810Z,9.44
2023-04-23T04:10:25.727Z,9.42
2023-04-23T04:11:25.657Z,9.47
2023-04-23T04:12:25.669Z,9.48
2023-04-23T04:13:25.696Z,9.49
2023-04-23T04:14:25.684Z,9.49
2023-04-23T04:15:25.689Z,9.51
2023-04-23T04:16:25.699Z,9.52
2023-04-23T04:17:25.715Z,9.55
2023-04-23T04:18:25.702Z,9.55
2023-04-23T04:19:25.583Z,9.55
2023-04-23T04:20:25.583Z,9.56
2023-04-23T04:21:25.615Z,9.58
2023-04-23T04:22:25.570Z,9.62
2023-04-23T04:23:25.594Z,9.63
2023-04-23T04:24:26.318Z,9.66
2023-04-23T04:25:25.474Z,9.64
2023-04-23T04:26:25.494Z,9.69
2023-04-23T04:27:25.461Z,9.69
2023-04-23T04:28:25.436Z,9.70
2023-04-23T04:29:25.514Z,9.72
2023-04-23T04:30:25.475Z,9.73
2023-04-23T04:31:25.387Z,9.76
2023-04-23T04:32:25.374Z,9.76
2023-04-23T04:33:25.568Z,9.77
2023-04-23T04:34:25.337Z,9.80
2023-04-23T04:35:25.438Z,9.81
2023-04-23T04:36:25.403Z,9.82
2023-04-23T04:37:25.362Z,9.84
2023-04-23T04:38:25.283Z,9.88
2023-04-23T04:39:25.326Z,9.90
2023-04-23T04:40:25.384Z,9.92
2023-04-23T04:41:25.304Z,9.95
2023-04-23T04:42:25.288Z,9.97
2023-04-23T04:43:25.223Z,10.00
2023-04-23T04:44:25.229Z,10.05
2023-04-23T04:45:25.230Z,10.07
2023-04-23T04:46:25.318Z,10.10
2023-04-23T04:47:25.233Z,10.13
2023-04-23T04:48:25.215Z,10.13
2023-04-23T04:49:25.163Z,10.15
2023-04-23T04:50:25.165Z,10.15
2023-04-23T04:51:25.212Z,10.17
2023-04-23T04:52:25.142Z,10.18
2023-04-23T04:53:25.099Z,10.18
2023-04-23T04:54:25.190Z,10.20
2023-04-23T04:55:25.049Z,10.21
2023-04-23T04:56:25.097Z,10.20
2023-04-23T04:57:25.220Z,10.21
2023-04-23T04:58:25.058Z,10.24
2023-04-23T04:59:25.043Z,10.27
2023-04-23T05:00:25.046Z,10.31
2023-04-23T05:01:25.110Z,10.41
2023-04-23T05:02:25.168Z,10.48
2023-04-23T05:03:25.094Z,10.57
2023-04-23T05:04:25.172Z,10.59
2023-04-23T05:05:25.008Z,10.65
2023-04-23T05:06:24.987Z,10.72
2023-04-23T05:07:24.952Z,10.80
2023-04-23T05:08:24.979Z,10.87
2023-04-23T05:09:24.937Z,11.05
2023-04-23T05:10:24.875Z,11.49
2023-04-23T05:11:24.889Z,12.14
2023-04-23T05:12:24.878Z,12.86
2023-04-23T05:13:24.838Z,13.57
2023-04-23T05:14:24.896Z,14.30
2023-04-23T05:15:24.857Z,15.00
2023-04-23T05:16:24.810Z,15.72
2023-04-23T05:17:24.837Z,16.31
2023-04-23T05:18:24.767Z,16.82
2023-04-23T05:19:24.778Z,17.28
2023-04-23T05:20:24.714Z,17.69
2023-04-23T05:21:24.787Z,17.95
2023-04-23T05:22:24.717Z,18.19
2023-04-23T05:23:24.711Z,18.03
2023-04-23T05:24:24.703Z,18.34
2023-04-23T05:25:24.789Z,18.78
2023-04-23T05:26:24.951Z,19.32
2023-04-23T05:27:24.712Z,19.66
2023-04-23T05:28:24.652Z,19.93
2023-04-23T05:29:24.684Z,20.14
2023-04-23T05:30:24.612Z,20.36
2023-04-23T05:31:24.733Z,20.58
2023-04-23T05:32:24.601Z,20.67
2023-04-23T05:33:25.847Z,20.89
2023-04-23T05:34:24.592Z,21.14
2023-04-23T05:35:24.584Z,21.38
2023-04-23T05:36:24.594Z,21.47
2023-04-23T05:37:24.539Z,21.75
2023-04-23T05:38:24.519Z,21.54
2023-04-23T05:39:24.519Z,21.28
2023-04-23T05:40:24.503Z,21.14
2023-04-23T05:41:24.467Z,20.44
2023-04-23T05:42:24.526Z,20.12
2023-04-23T05:43:24.434Z,19.45
2023-04-23T05:44:24.387Z,18.96
2023-04-23T05:45:24.430Z,18.68
2023-04-23T05:46:24.421Z,18.02
2023-04-23T05:47:24.391Z,17.27
2023-04-23T05:48:24.434Z,16.80
2023-04-23T05:49:24.350Z,16.54
2023-04-23T05:50:24.376Z,16.26
2023-04-23T05:51:24.330Z,15.94
2023-04-23T05:52:24.317Z,15.75
2023-04-23T05:53:24.444Z,15.57
2023-04-23T05:54:24.551Z,15.45
2023-04-23T05:55:24.384Z,15.33
2023-04-23T05:56:24.340Z,15.29
2023-04-23T05:57:24.410Z,15.22
2023-04-23T05:58:24.203Z,15.14
2023-04-23T05:59:24.470Z,15.12
2023-04-23T06:00:24.251Z,15.04
2023-04-23T06:01:24.147Z,14.96
2023-04-23T06:02:25.080Z,14.90
2023-04-23T06:03:24.573Z,14.93
2023-04-23T06:04:24.562Z,14.94
2023-04-23T06:05:24.258Z,15.02
2023-04-23T06:06:24.264Z,15.23
2023-04-23T06:07:24.115Z,15.99
2023-04-23T06:08:25.247Z,17.73
2023-04-23T06:09:24.086Z,18.92
2023-04-23T06:10:24.159Z,20.02
2023-04-23T06:11:24.069Z,20.83
2023-04-23T06:12:24.228Z,21.62
2023-04-23T06:13:24.066Z,22.33
2023-04-23T06:14:24.100Z,22.70
2023-04-23T06:15:24.158Z,23.20
2023-04-23T06:16:24.022Z,23.48
2023-04-23T06:17:24.063Z,23.77
2023-04-23T06:18:23.950Z,24.04
2023-04-23T06:19:24.071Z,24.25
2023-04-23T06:20:23.988Z,24.48
2023-04-23T06:21:24.063Z,24.21
2023-04-23T06:22:24.090Z,24.01
2023-04-23T06:23:23.901Z,23.96
2023-04-23T06:24:23.911Z,24.21
2023-04-23T06:25:24.066Z,24.28
2023-04-23T06:26:23.949Z,23.66
2023-04-23T06:27:23.818Z,22.76
2023-04-23T06:28:23.834Z,22.61
2023-04-23T06:29:23.760Z,22.53
2023-04-23T06:30:23.764Z,22.61
2023-04-23T06:31:23.795Z,21.96
2023-04-23T06:32:23.879Z,21.48
2023-04-23T06:33:23.687Z,20.68
2023-04-23T06:34:23.753Z,20.22
2023-04-23T06:35:23.662Z,19.89
2023-04-23T06:36:23.712Z,19.87
2023-04-23T06:37:23.663Z,20.14
2023-04-23T06:38:23.678Z,20.14
2023-04-23T06:39:23.629Z,20.59
2023-04-23T06:40:23.687Z,20.66
2023-04-23T06:41:23.601Z,20.18
2023-04-23T06:42:23.630Z,19.89
2023-04-23T06:43:23.851Z,19.74
2023-04-23T06:44:23.624Z,20.18
2023-04-23T06:45:23.539Z,20.66
2023-04-23T06:46:23.601Z,20.49
2023-04-23T06:47:23.512Z,20.03
2023-04-23T06:48:23.545Z,19.79
2023-04-23T06:49:23.641Z,19.62
2023-04-23T06:50:23.515Z,19.59
2023-04-23T06:51:23.597Z,19.53
2023-04-23T06:52:23.579Z,19.39
2023-04-23T06:53:23.758Z,19.30
2023-04-23T06:54:23.571Z,18.76
2023-04-23T06:55:23.513Z,18.79
2023-04-23T06:56:23.592Z,18.88
2023-04-23T06:57:23.443Z,18.96
2023-04-23T06:58:23.414Z,19.05
2023-04-23T06:59:23.450Z,19.29
2023-04-23T07:00:23.671Z,19.49
2023-04-23T07:01:23.449Z,19.84
2023-04-23T07:02:23.392Z,20.24
2023-04-23T07:03:23.462Z,20.52
2023-04-23T07:04:23.648Z,21.35
2023-04-23T07:05:23.459Z,22.06
2023-04-23T07:06:23.367Z,23.07
2023-04-23T07:07:23.368Z,24.01
2023-04-23T07:08:23.280Z,24.65
2023-04-23T07:09:23.483Z,25.21
2023-04-23T07:10:23.313Z,25.78
2023-04-23T07:11:23.441Z,26.04
2023-04-23T07:12:23.360Z,25.99
2023-04-23T07:13:23.230Z,26.16
2023-04-23T07:14:23.321Z,26.22
2023-04-23T07:15:23.474Z,25.81
2023-04-23T07:16:23.330Z,26.13
2023-04-23T07:17:23.493Z,26.30
2023-04-23T07:18:23.356Z,26.60
2023-04-23T07:19:23.146Z,26.34
2023-04-23T07:20:23.299Z,26.01
2023-04-23T07:21:23.118Z,25.81
2023-04-23T07:22:23.369Z,25.21
2023-04-23T07:23:23.132Z,24.92
2023-04-23T07:24:23.363Z,24.61
2023-04-23T07:25:23.092Z,24.53
2023-04-23T07:26:23.093Z,24.65
2023-04-23T07:27:23.134Z,24.69
2023-04-23T07:28:23.041Z,25.36
2023-04-23T07:29:23.222Z,25.77
2023-04-23T07:30:23.015Z,26.24
2023-04-23T07:31:23.117Z,26.63
2023-04-23T07:32:23.028Z,26.49
2023-04-23T07:33:22.968Z,26.88
2023-04-23T07:34:22.983Z,27.19
2023-04-23T07:35:23.221Z,27.23
2023-04-23T07:36:22.996Z,27.20
2023-04-23T07:37:22.936Z,26.81
2023-04-23T07:38:22.994Z,26.16
2023-04-23T07:39:22.894Z,25.95
2023-04-23T07:40:22.961Z,26.23
2023-04-23T07:41:23.204Z,25.16
2023-04-23T07:42:22.996Z,24.78
2023-04-23T07:43:22.836Z,25.30
2023-04-23T07:44:23.019Z,26.24
2023-04-23T07:45:22.791Z,26.55
2023-04-23T07:46:22.920Z,27.08
2023-04-23T07:47:23.048Z,27.75
2023-04-23T07:48:22.986Z,28.25
2023-04-23T07:49:22.830Z,28.09
2023-04-23T07:50:22.754Z,28.30
2023-04-23T07:51:22.833Z,28.33
2023-04-23T07:52:22.801Z,28.35
2023-04-23T07:53:22.848Z,28.55
2023-04-23T07:54:24.500Z,27.98
2023-04-23T07:55:22.789Z,27.93
2023-04-23T07:56:22.708Z,27.34
2023-04-23T07:57:22.819Z,27.38
2023-04-23T07:58:22.765Z,27.26
2023-04-23T07:59:22.638Z,27.23
2023-04-23T08:00:22.669Z,27.07
2023-04-23T08:01:22.630Z,26.96
2023-04-23T08:02:22.750Z,26.93
2023-04-23T08:03:23.021Z,26.37
2023-04-23T08:04:22.877Z,26.24
2023-04-23T08:05:22.836Z,26.81
2023-04-23T08:06:22.683Z,27.22
2023-04-23T08:07:22.551Z,27.10
2023-04-23T08:08:22.645Z,26.88
2023-04-23T08:09:22.592Z,26.60
2023-04-23T08:10:22.641Z,26.37
2023-04-23T08:11:22.493Z,25.86
2023-04-23T08:12:22.487Z,25.67
2023-04-23T08:13:22.530Z,25.85
2023-04-23T08:14:22.449Z,26.27
2023-04-23T08:15:22.611Z,26.15
2023-04-23T08:16:22.498Z,26.15
2023-04-23T08:17:22.524Z,25.71
2023-04-23T08:18:22.405Z,26.03
2023-04-23T08:19:22.480Z,24.94
2023-04-23T08:20:22.347Z,23.73
2023-04-23T08:21:22.552Z,23.42
2023-04-23T08:22:22.401Z,23.70
2023-04-23T08:23:22.375Z,23.34
2023-04-23T08:24:22.498Z,22.86
2023-04-23T08:25:22.513Z,22.99
2023-04-23T08:26:22.320Z,23.10
2023-04-23T08:27:22.460Z,23.49
2023-04-23T08:28:22.310Z,23.67
2023-04-23T08:29:22.604Z,23.66
2023-04-23T08:30:22.319Z,24.13
2023-04-23T08:31:26.631Z,24.07
2023-04-23T08:32:22.579Z,23.71
2023-04-23T08:33:22.264Z,23.07
2023-04-23T08:34:22.327Z,23.55
2023-04-23T08:35:22.162Z,24.26
2023-04-23T08:36:22.361Z,24.88
2023-04-23T08:37:30.421Z,25.77
2023-04-23T08:38:22.106Z,25.91
2023-04-23T08:39:22.253Z,26.60
2023-04-23T08:40:22.125Z,27.19
2023-04-23T08:41:22.193Z,27.43
2023-04-23T08:42:22.040Z,25.80
2023-04-23T08:43:22.184Z,25.56
2023-04-23T08:44:22.079Z,25.30
2023-04-23T08:45:22.100Z,23.99
2023-04-23T08:46:22.107Z,23.49
2023-04-23T08:47:22.187Z,23.20
2023-04-23T08:48:21.966Z,24.14
2023-04-23T08:49:21.984Z,24.84
2023-04-23T08:50:21.997Z,24.25
2023-04-23T08:51:22.324Z,24.66
2023-04-23T08:52:21.900Z,24.38
2023-04-23T08:53:21.931Z,24.65
2023-04-23T08:54:21.988Z,24.31
2023-04-23T08:55:21.875Z,24.37
2023-04-23T08:56:22.006Z,24.92
2023-04-23T08:57:21.914Z,25.71
2023-04-23T08:58:21.929Z,26.16
2023-04-23T08:59:21.876Z,26.33
2023-04-23T09:00:21.885Z,26.82
2023-04-23T09:01:22.118Z,25.62
2023-04-23T09:02:21.944Z,25.51
2023-04-23T09:03:22.132Z,25.34
2023-04-23T09:04:21.854Z,24.82
2023-04-23T09:05:22.014Z,24.51
2023-04-23T09:06:21.765Z,24.97
2023-04-23T09:07:21.842Z,25.91
2023-04-23T09:08:21.686Z,26.52
2023-04-23T09:09:21.844Z,26.68
2023-04-23T09:10:21.779Z,27.03
2023-04-23T09:11:21.732Z,27.20
2023-04-23T09:12:21.668Z,26.63
2023-04-23T09:13:21.832Z,25.99
2023-04-23T09:14:21.610Z,25.55
2023-04-23T09:15:21.652Z,26.41
2023-04-23T09:16:21.694Z,26.60
2023-04-23T09:17:21.897Z,26.51
2023-04-23T09:18:21.668Z,26.78
2023-04-23T09:19:21.849Z,27.18
2023-04-23T09:20:21.860Z,26.68
2023-04-23T09:21:21.934Z,25.93
2023-04-23T09:22:21.537Z,25.58
2023-04-23T09:23:21.490Z,26.04
2023-04-23T09:24:21.541Z,26.01
2023-04-23T09:25:21.691Z,26.06
2023-04-23T09:26:21.539Z,26.53
2023-04-23T09:27:21.548Z,27.00
2023-04-23T09:28:21.461Z,27.01
2023-04-23T09:29:21.421Z,27.13
2023-04-23T09:30:21.585Z,26.91
2023-04-23T09:31:21.432Z,26.59
2023-04-23T09:32:21.591Z,26.49
2023-04-23T09:33:21.366Z,25.86
2023-04-23T09:34:21.352Z,26.19
2023-04-23T09:35:21.547Z,26.64
2023-04-23T09:36:21.446Z,27.13
2023-04-23T09:37:21.356Z,27.05
2023-04-23T09:38:21.328Z,27.00
2023-04-23T09:39:21.599Z,26.74
2023-04-23T09:40:21.304Z,26.78
2023-04-23T09:41:21.310Z,25.96
2023-04-23T09:42:21.353Z,24.62
2023-04-23T09:43:21.243Z,24.29
2023-04-23T09:44:21.412Z,24.71
2023-04-23T09:45:21.230Z,24.50
2023-04-23T09:46:21.192Z,24.51
2023-04-23T09:47:22.608Z,24.61
2023-04-23T09:48:21.218Z,25.07
2023-04-23T09:49:21.232Z,25.56
2023-04-23T09:50:21.218Z,25.93
2023-04-23T09:51:21.142Z,26.34
2023-04-23T09:52:21.130Z,26.55
2023-04-23T09:53:21.135Z,27.16
2023-04-23T09:54:21.116Z,27.41
2023-04-23T09:55:21.132Z,27.64
2023-04-23T09:56:21.199Z,27.67
2023-04-23T09:57:21.063Z,27.85
2023-04-23T09:58:21.077Z,28.08
2023-04-23T09:59:26.753Z,28.46
2023-04-23T10:00:21.703Z,28.28
2023-04-23T10:01:21.148Z,28.55
2023-04-23T10:02:21.194Z,28.35
2023-04-23T10:03:21.063Z,27.98
2023-04-23T10:04:21.132Z,26.76
2023-04-23T10:05:24.868Z,26.88
2023-04-23T10:06:37.004Z,27.15
2023-04-23T10:07:21.021Z,27.16
2023-04-23T10:08:20.918Z,27.45
2023-04-23T10:09:20.858Z,27.71
2023-04-23T10:10:20.853Z,27.79
2023-04-23T10:11:21.266Z,27.44
2023-04-23T10:12:41.001Z,27.48
2023-04-23T10:13:21.472Z,27.40
2023-04-23T10:14:20.877Z,27.41
2023-04-23T10:15:20.838Z,27.33
2023-04-23T10:16:23.302Z,27.64
2023-04-23T10:17:20.834Z,27.82
2023-04-23T10:18:20.842Z,28.16
2023-04-23T10:19:21.695Z,28.15
2023-04-23T10:20:20.865Z,27.60
2023-04-23T10:21:20.785Z,27.68
2023-04-23T10:22:20.887Z,27.53
2023-04-23T10:23:20.706Z,27.58
2023-04-23T10:24:20.813Z,27.60
2023-04-23T10:25:20.762Z,27.15
2023-04-23T10:26:20.641Z,27.01
2023-04-23T10:28:20.674Z,27.15
2023-04-23T10:29:20.620Z,27.05
2023-04-23T10:30:20.650Z,26.66
2023-04-23T10:31:20.643Z,26.74
2023-04-23T10:32:20.637Z,26.42
2023-04-23T10:33:29.430Z,26.34
2023-04-23T10:34:20.610Z,26.44
2023-04-23T10:35:20.617Z,26.71
2023-04-23T10:36:20.637Z,26.68
2023-04-23T10:37:20.604Z,26.31
2023-04-23T10:38:20.500Z,26.31
2023-04-23T10:39:27.543Z,25.76
2023-04-23T10:40:20.530Z,25.91
2023-04-23T10:41:20.771Z,25.95
2023-04-23T10:42:20.567Z,25.85
2023-04-23T10:43:20.475Z,25.19
2023-04-23T10:44:36.214Z,25.26
2023-04-23T10:45:24.928Z,25.83
2023-04-23T10:46:20.420Z,26.39
2023-04-23T10:47:20.448Z,26.18
2023-04-23T10:48:20.648Z,25.41
2023-04-23T10:49:20.334Z,25.37
2023-04-23T10:50:20.353Z,25.78
2023-04-23T10:52:22.826Z,25.74
2023-04-23T10:53:20.334Z,25.68
2023-04-23T10:54:20.349Z,25.55
2023-04-23T10:55:20.293Z,25.09
2023-04-23T10:56:20.229Z,24.66
2023-04-23T10:57:20.286Z,24.24
2023-04-23T10:58:20.283Z,24.22
2023-04-23T10:59:20.351Z,24.22
2023-04-23T11:00:20.251Z,24.03
2023-04-23T11:01:20.256Z,24.19
2023-04-23T11:02:20.430Z,24.37
2023-04-23T11:03:20.280Z,24.93
2023-04-23T11:04:20.355Z,25.41
2023-04-23T11:05:20.151Z,25.74
2023-04-23T11:06:20.147Z,25.77
2023-04-23T11:07:20.156Z,25.22
2023-04-23T11:08:20.253Z,25.12
2023-04-23T11:09:20.103Z,24.79
2023-04-23T11:10:20.146Z,24.85
2023-04-23T11:11:20.103Z,24.92
2023-04-23T11:12:20.081Z,24.99
2023-04-23T11:13:20.040Z,24.86
2023-04-23T11:14:20.085Z,24.59
2023-04-23T11:15:20.048Z,24.26
2023-04-23T11:16:20.125Z,24.03
2023-04-23T11:17:20.035Z,23.91
2023-04-23T11:18:19.990Z,23.76
2023-04-23T11:19:20.661Z,23.32
2023-04-23T11:20:19.970Z,22.86
2023-04-23T11:21:19.970Z,22.83
2023-04-23T11:22:19.973Z,22.95
2023-04-23T11:23:19.917Z,22.86
2023-04-23T11:24:19.902Z,22.73
2023-04-23T11:25:19.939Z,22.71
2023-04-23T11:26:19.890Z,22.63
2023-04-23T11:27:19.863Z,22.56
2023-04-23T11:28:19.950Z,22.63
2023-04-23T11:29:19.906Z,22.70
2023-04-23T11:30:19.873Z,22.70
2023-04-23T11:31:19.915Z,22.68
2023-04-23T11:32:19.923Z,22.73
2023-04-23T11:33:19.910Z,22.70
2023-04-23T11:34:19.782Z,22.47
2023-04-23T11:35:19.815Z,22.33
2023-04-23T11:36:19.702Z,22.28
2023-04-23T11:37:19.761Z,22.18
2023-04-23T11:38:19.821Z,22.25
2023-04-23T11:39:19.686Z,22.40
2023-04-23T11:40:19.749Z,22.43
2023-04-23T11:41:20.035Z,22.52
2023-04-23T11:42:19.678Z,22.77
2023-04-23T11:43:19.678Z,22.98
2023-04-23T11:44:19.758Z,23.16
2023-04-23T11:45:19.638Z,23.40
2023-04-23T11:46:19.635Z,23.49
2023-04-23T11:47:19.655Z,23.62
2023-04-23T11:48:19.561Z,23.54
2023-04-23T11:49:19.608Z,23.54
2023-04-23T11:50:19.667Z,23.49
2023-04-23T11:51:19.553Z,23.45
2023-04-23T11:52:19.559Z,23.54
2023-04-23T11:53:19.512Z,23.71
2023-04-23T11:54:19.505Z,23.45
2023-04-23T11:55:19.486Z,23.33
2023-04-23T11:56:19.526Z,23.39
2023-04-23T11:57:19.447Z,23.28
2023-04-23T11:58:19.459Z,23.18
2023-04-23T11:59:19.434Z,23.11
2023-04-23T12:00:19.392Z,23.33
2023-04-23T12:01:19.478Z,23.45
2023-04-23T12:02:19.549Z,23.58
2023-04-23T12:03:19.524Z,23.64
2023-04-23T12:04:19.627Z,23.42
2023-04-23T12:05:19.441Z,23.32
2023-04-23T12:06:19.363Z,23.07
